Time;durP1;ratioP1;P1;durP2;ratioP2;P2;SDS_P1;SDS_P2;PMS_P1;PMS_P2;Temp;Humidity;BMP_temperature;BMP_pressure;BME280_temperature;BME280_humidity;BME280_pressure;Samples;Min_cycle;Max_cycle;Signal;HPM_P1;HPM_P2
2024/04/18 00:00:12;;;;;;;6.50;3.30;;;;;;;;;;5345241;26;20001;-78
2024/04/18 00:02:40;;;;;;;5.93;3.30;;;;;;;;;;5344854;26;20078;-77
2024/04/18 00:05:06;;;;;;;6.88;3.40;;;;;;;;;;5344947;26;20512;-76
2024/04/18 00:07:35;;;;;;;7.60;4.00;;;;;;;;;;5359056;26;19997;-77
2024/04/18 00:10:01;;;;;;;7.78;3.72;;;;;;;;;;5344948;26;20449;-76
2024/04/18 00:12:32;;;;;;;8.90;3.50;;;;;;;;;;5344152;26;20116;-76
2024/04/18 00:14:58;;;;;;;6.07;3.47;;;;;;;;;;5356417;26;20326;-77
2024/04/18 00:17:26;;;;;;;6.60;3.50;;;;;;;;;;5360342;26;20000;-77
2024/04/18 00:19:52;;;;;;;5.40;3.25;;;;;;;;;;5355986;26;20014;-77
2024/04/18 00:22:21;;;;;;;6.22;3.33;;;;;;;;;;5361947;26;20000;-76
2024/04/18 00:24:46;;;;;;;6.25;3.30;;;;;;;;;;5356592;26;20095;-75
2024/04/18 00:27:15;;;;;;;6.53;3.67;;;;;;;;;;5357502;26;20001;-76
2024/04/18 00:29:43;;;;;;;7.45;3.58;;;;;;;;;;5358212;26;20339;-77
2024/04/18 00:32:12;;;;;;;7.65;3.70;;;;;;;;;;5343248;26;20016;-77
2024/04/18 00:34:38;;;;;;;6.53;3.75;;;;;;;;;;5345507;26;20003;-77
2024/04/18 00:37:06;;;;;;;6.93;3.92;;;;;;;;;;5344996;26;20005;-78
2024/04/18 00:39:33;;;;;;;6.20;3.97;;;;;;;;;;5350613;26;20025;-79
2024/04/18 00:42:01;;;;;;;5.65;3.28;;;;;;;;;;5352314;26;20036;-77
2024/04/18 00:44:28;;;;;;;7.82;3.90;;;;;;;;;;5363863;26;20000;-77
2024/04/18 00:46:59;;;;;;;6.63;3.53;;;;;;;;;;5353173;26;20331;-77
2024/04/18 00:49:26;;;;;;;9.00;4.15;;;;;;;;;;5358740;26;20104;-78
2024/04/18 00:51:55;;;;;;;6.97;4.32;;;;;;;;;;5344942;26;20081;-78
2024/04/18 00:54:22;;;;;;;6.78;3.78;;;;;;;;;;5341656;26;20005;-78
2024/04/18 00:56:50;;;;;;;6.55;3.65;;;;;;;;;;5357766;26;20532;-76
2024/04/18 00:59:16;;;;;;;6.97;4.07;;;;;;;;;;5357610;26;20001;-76
2024/04/18 01:01:47;;;;;;;6.78;3.70;;;;;;;;;;5352390;26;20000;-77
2024/04/18 01:04:16;;;;;;;8.82;3.75;;;;;;;;;;5362806;26;20565;-78
2024/04/18 01:06:46;;;;;;;6.80;3.72;;;;;;;;;;5358712;26;20001;-78
2024/04/18 01:09:12;;;;;;;6.00;4.35;;;;;;;;;;5358638;26;20092;-76
2024/04/18 01:11:40;;;;;;;7.47;3.70;;;;;;;;;;5343887;26;20008;-77
2024/04/18 01:14:08;;;;;;;8.85;4.93;;;;;;;;;;5344137;26;20037;-77
2024/04/18 01:16:36;;;;;;;8.45;4.30;;;;;;;;;;5363674;26;20489;-77
2024/04/18 01:19:04;;;;;;;7.57;4.55;;;;;;;;;;5364529;26;20077;-76
2024/04/18 01:21:35;;;;;;;7.90;4.10;;;;;;;;;;5344609;26;20011;-77
2024/04/18 01:24:00;;;;;;;6.97;4.20;;;;;;;;;;5360928;26;20062;-78
2024/04/18 01:26:32;;;;;;;7.07;4.45;;;;;;;;;;5336392;26;20012;-78
2024/04/18 01:28:57;;;;;;;7.18;3.75;;;;;;;;;;5352392;26;20004;-77
2024/04/18 01:31:26;;;;;;;6.93;4.18;;;;;;;;;;5343589;26;20344;-77
2024/04/18 01:33:52;;;;;;;7.38;4.13;;;;;;;;;;5343307;26;19997;-76
2024/04/18 01:36:20;;;;;;;6.97;4.25;;;;;;;;;;5360988;26;20009;-78
2024/04/18 01:38:46;;;;;;;7.22;4.30;;;;;;;;;;5355255;26;20002;-78
2024/04/18 01:41:16;;;;;;;6.82;4.40;;;;;;;;;;5358966;26;20019;-77
2024/04/18 01:43:45;;;;;;;7.95;4.20;;;;;;;;;;5340419;26;20025;-77
2024/04/18 01:46:13;;;;;;;8.27;4.10;;;;;;;;;;5332869;26;20002;-78
2024/04/18 01:48:39;;;;;;;7.75;4.38;;;;;;;;;;5343008;26;19997;-78
2024/04/18 01:51:08;;;;;;;7.47;4.53;;;;;;;;;;5343061;26;20005;-77
2024/04/18 01:53:33;;;;;;;6.90;4.40;;;;;;;;;;5350913;26;20000;-78
2024/04/18 01:56:02;;;;;;;7.53;4.53;;;;;;;;;;5361765;26;20079;-77
2024/04/18 01:58:29;;;;;;;8.02;5.18;;;;;;;;;;5343514;26;20024;-77
2024/04/18 02:01:01;;;;;;;8.32;5.10;;;;;;;;;;5352191;26;20000;-76
2024/04/18 02:03:26;;;;;;;8.65;4.75;;;;;;;;;;5359151;26;20004;-76
2024/04/18 02:05:55;;;;;;;8.15;5.40;;;;;;;;;;5365882;26;20073;-77
2024/04/18 02:08:21;;;;;;;7.82;4.97;;;;;;;;;;5349284;26;20070;-77
2024/04/18 02:10:51;;;;;;;10.80;5.30;;;;;;;;;;5356316;26;19996;-78
2024/04/18 02:13:17;;;;;;;7.90;4.53;;;;;;;;;;5342758;26;19997;-78
2024/04/18 02:15:46;;;;;;;8.00;4.63;;;;;;;;;;5346653;26;20486;-77
2024/04/18 02:18:14;;;;;;;7.45;4.88;;;;;;;;;;5334158;26;20105;-78
2024/04/18 02:20:43;;;;;;;7.55;4.82;;;;;;;;;;5359454;26;20001;-77
2024/04/18 02:23:08;;;;;;;11.20;5.68;;;;;;;;;;5361425;26;20015;-76
2024/04/18 02:25:37;;;;;;;8.05;4.95;;;;;;;;;;5326326;26;20001;-78
2024/04/18 02:28:03;;;;;;;9.15;4.75;;;;;;;;;;5337063;26;20079;-77
2024/04/18 02:30:32;;;;;;;8.75;5.30;;;;;;;;;;5355869;26;20005;-77
2024/04/18 02:32:58;;;;;;;7.60;4.65;;;;;;;;;;5348364;26;20005;-77
2024/04/18 02:35:29;;;;;;;8.75;5.50;;;;;;;;;;5349038;26;20015;-77
2024/04/18 02:37:55;;;;;;;9.00;5.00;;;;;;;;;;5362123;26;20000;-77
2024/04/18 02:40:23;;;;;;;8.52;5.35;;;;;;;;;;5355507;26;20005;-77
2024/04/18 02:42:49;;;;;;;8.18;4.97;;;;;;;;;;5357126;26;20467;-76
2024/04/18 02:45:18;;;;;;;8.32;4.93;;;;;;;;;;5347777;26;20044;-78
2024/04/18 02:47:44;;;;;;;9.30;5.57;;;;;;;;;;5361836;26;20007;-77
2024/04/18 02:50:12;;;;;;;8.15;5.43;;;;;;;;;;5345962;26;20308;-77
2024/04/18 02:52:41;;;;;;;11.73;5.53;;;;;;;;;;5352501;26;20012;-77
2024/04/18 02:55:09;;;;;;;10.73;5.95;;;;;;;;;;5346455;26;20001;-77
2024/04/18 02:57:35;;;;;;;8.60;5.70;;;;;;;;;;5360930;26;20001;-77
2024/04/18 03:00:04;;;;;;;8.68;5.85;;;;;;;;;;5331995;26;20355;-78
2024/04/18 03:02:30;;;;;;;9.32;5.90;;;;;;;;;;5347202;26;20012;-77
2024/04/18 03:04:58;;;;;;;8.90;5.82;;;;;;;;;;5361691;26;20450;-77
2024/04/18 03:07:24;;;;;;;11.43;6.18;;;;;;;;;;5361934;26;19996;-78
2024/04/18 03:09:56;;;;;;;9.52;6.00;;;;;;;;;;5347233;26;20012;-78
2024/04/18 03:12:21;;;;;;;11.93;6.70;;;;;;;;;;5347026;26;20005;-77
2024/04/18 03:14:51;;;;;;;11.00;6.15;;;;;;;;;;5345417;26;20450;-76
2024/04/18 03:17:17;;;;;;;8.77;5.70;;;;;;;;;;5359000;26;19997;-76
2024/04/18 03:19:46;;;;;;;10.20;6.25;;;;;;;;;;5347205;26;20582;-76
2024/04/18 03:22:12;;;;;;;11.05;6.40;;;;;;;;;;5345138;26;20484;-77
2024/04/18 03:24:40;;;;;;;11.98;6.32;;;;;;;;;;5346809;26;20001;-78
2024/04/18 03:27:09;;;;;;;11.15;7.00;;;;;;;;;;5359447;26;19996;-76
2024/04/18 03:29:37;;;;;;;8.98;6.22;;;;;;;;;;5337816;26;20001;-77
2024/04/18 03:32:03;;;;;;;11.23;6.47;;;;;;;;;;5365650;26;19996;-77
2024/04/18 03:34:32;;;;;;;12.18;6.80;;;;;;;;;;5360306;26;20013;-76
2024/04/18 03:37:01;;;;;;;10.10;6.47;;;;;;;;;;5357268;26;19996;-77
2024/04/18 03:39:30;;;;;;;11.45;6.68;;;;;;;;;;5372816;26;20536;-77
2024/04/18 03:41:59;;;;;;;12.63;7.50;;;;;;;;;;5345296;26;19997;-77
2024/04/18 03:44:30;;;;;;;9.60;6.55;;;;;;;;;;5359300;26;19999;-76
2024/04/18 03:46:59;;;;;;;13.63;7.20;;;;;;;;;;5356654;26;20012;-76
2024/04/18 03:49:28;;;;;;;12.45;7.30;;;;;;;;;;5346522;26;20339;-77
2024/04/18 03:51:56;;;;;;;11.63;6.35;;;;;;;;;;5345185;26;20078;-78
2024/04/18 03:54:22;;;;;;;12.77;7.10;;;;;;;;;;5359191;26;20001;-77
2024/04/18 03:56:51;;;;;;;13.38;8.05;;;;;;;;;;5344561;26;20415;-77
2024/04/18 03:59:17;;;;;;;14.23;7.72;;;;;;;;;;5345129;26;20000;-78
2024/04/18 04:01:48;;;;;;;11.18;7.32;;;;;;;;;;5345716;26;20000;-78
2024/04/18 04:04:13;;;;;;;12.13;7.70;;;;;;;;;;5347835;26;20073;-78
2024/04/18 04:06:42;;;;;;;10.85;6.72;;;;;;;;;;5359356;26;20467;-78
2024/04/18 04:09:08;;;;;;;12.65;6.80;;;;;;;;;;5345526;26;20468;-77
2024/04/18 04:11:37;;;;;;;14.75;8.40;;;;;;;;;;5352857;26;20000;-77
2024/04/18 04:14:05;;;;;;;12.90;7.53;;;;;;;;;;5353590;26;20054;-77
2024/04/18 04:16:33;;;;;;;12.60;7.13;;;;;;;;;;5344852;26;20082;-76
2024/04/18 04:19:02;;;;;;;11.65;7.22;;;;;;;;;;5359954;26;20004;-77
2024/04/18 04:21:30;;;;;;;12.82;7.65;;;;;;;;;;5345602;26;20015;-77
2024/04/18 04:23:56;;;;;;;13.05;7.25;;;;;;;;;;5346483;26;20068;-77
2024/04/18 04:26:27;;;;;;;14.20;8.25;;;;;;;;;;5361628;26;20001;-77
2024/04/18 04:28:53;;;;;;;12.27;7.30;;;;;;;;;;5359322;26;20007;-78
2024/04/18 04:31:21;;;;;;;13.70;8.15;;;;;;;;;;5354701;26;20004;-77
2024/04/18 04:33:47;;;;;;;13.88;8.02;;;;;;;;;;5366734;26;20001;-77
2024/04/18 04:36:18;;;;;;;12.02;7.88;;;;;;;;;;5350403;26;20015;-76
2024/04/18 04:38:44;;;;;;;13.25;8.10;;;;;;;;;;5360261;26;20008;-76
2024/04/18 04:41:12;;;;;;;15.23;7.88;;;;;;;;;;5345434;26;20032;-77
2024/04/18 04:43:39;;;;;;;12.77;8.18;;;;;;;;;;5360565;26;19997;-77
2024/04/18 04:46:07;;;;;;;13.10;7.97;;;;;;;;;;5346118;26;20368;-76
2024/04/18 04:48:33;;;;;;;12.60;7.93;;;;;;;;;;5345285;26;20024;-78
2024/04/18 04:51:04;;;;;;;12.05;8.60;;;;;;;;;;5359098;26;20000;-78
2024/04/18 04:53:33;;;;;;;15.45;8.18;;;;;;;;;;5346474;26;20008;-78
2024/04/18 04:56:01;;;;;;;15.43;8.82;;;;;;;;;;5359949;26;20004;-78
2024/04/18 04:58:27;;;;;;;14.52;8.68;;;;;;;;;;5350283;26;20012;-78
2024/04/18 05:00:57;;;;;;;13.38;8.10;;;;;;;;;;5367157;26;20023;-78
2024/04/18 05:03:22;;;;;;;13.35;8.48;;;;;;;;;;5348204;26;20001;-77
2024/04/18 05:05:51;;;;;;;11.95;7.20;;;;;;;;;;5362207;26;20001;-78
2024/04/18 05:08:17;;;;;;;13.45;7.53;;;;;;;;;;5354021;26;19989;-79
2024/04/18 05:10:48;;;;;;;13.15;8.10;;;;;;;;;;5358873;26;20002;-78
2024/04/18 05:13:15;;;;;;;11.45;7.32;;;;;;;;;;5360899;26;20015;-78
2024/04/18 05:15:44;;;;;;;12.50;8.25;;;;;;;;;;5347105;26;20095;-78
2024/04/18 05:18:09;;;;;;;14.15;7.30;;;;;;;;;;5361087;26;20011;-78
2024/04/18 05:20:39;;;;;;;13.07;7.78;;;;;;;;;;5338474;26;20037;-77
2024/04/18 05:23:06;;;;;;;13.27;8.68;;;;;;;;;;5336645;26;20005;-77
2024/04/18 05:25:35;;;;;;;13.18;7.50;;;;;;;;;;5344605;26;20009;-78
2024/04/18 05:28:10;;;;;;;12.38;8.00;;;;;;;;;;5341634;26;20016;-78
2024/04/18 05:33:23;;;;;;;13.35;8.45;;;;;;;;;;5349123;26;20477;-78
2024/04/18 05:35:52;;;;;;;12.63;7.82;;;;;;;;;;5346606;26;20011;-79
2024/04/18 05:38:20;;;;;;;11.52;7.38;;;;;;;;;;5358564;26;20000;-79
2024/04/18 05:40:49;;;;;;;12.88;7.63;;;;;;;;;;5348130;26;19997;-78
2024/04/18 05:43:20;;;;;;;13.60;7.95;;;;;;;;;;5349768;26;20598;-78
2024/04/18 05:45:50;;;;;;;12.50;7.70;;;;;;;;;;5363693;26;19997;-77
2024/04/18 05:48:18;;;;;;;11.60;7.38;;;;;;;;;;5335354;26;20008;-78
2024/04/18 05:50:47;;;;;;;11.70;7.10;;;;;;;;;;5350102;26;20011;-78
2024/04/18 05:53:15;;;;;;;12.07;6.43;;;;;;;;;;5349264;26;20017;-78
2024/04/18 05:55:44;;;;;;;10.75;6.30;;;;;;;;;;5364110;26;20115;-77
2024/04/18 05:58:12;;;;;;;8.98;5.47;;;;;;;;;;5335361;26;20001;-78
2024/04/18 06:00:43;;;;;;;9.63;5.85;;;;;;;;;;5361958;26;19997;-78
2024/04/18 06:03:12;;;;;;;8.57;5.10;;;;;;;;;;5349292;26;20005;-78
2024/04/18 06:05:40;;;;;;;7.90;4.93;;;;;;;;;;5350790;26;20108;-78
2024/04/18 06:08:09;;;;;;;7.93;4.82;;;;;;;;;;5345086;26;20354;-78
2024/04/18 06:10:37;;;;;;;7.15;5.00;;;;;;;;;;5348565;26;20070;-77
2024/04/18 06:13:07;;;;;;;8.00;4.82;;;;;;;;;;5348348;26;20015;-77
2024/04/18 06:15:36;;;;;;;8.55;4.75;;;;;;;;;;5344997;26;20124;-77
2024/04/18 06:18:07;;;;;;;7.70;5.03;;;;;;;;;;5346881;26;20023;-78
2024/04/18 06:20:41;;;;;;;7.82;4.90;;;;;;;;;;5348222;26;20001;-78
2024/04/18 06:23:10;;;;;;;8.18;5.10;;;;;;;;;;5349433;26;19997;-77
2024/04/18 06:25:39;;;;;;;7.47;4.90;;;;;;;;;;5327441;26;20682;-77
2024/04/18 06:28:11;;;;;;;8.63;5.35;;;;;;;;;;5323126;26;20010;-78
2024/04/18 06:30:40;;;;;;;8.95;5.75;;;;;;;;;;5327211;26;20339;-76
2024/04/18 06:33:11;;;;;;;8.15;4.95;;;;;;;;;;5334598;26;20005;-77
2024/04/18 06:35:39;;;;;;;8.98;5.10;;;;;;;;;;5332821;26;20453;-77
2024/04/18 06:38:08;;;;;;;8.48;5.05;;;;;;;;;;5332487;26;20493;-78
2024/04/18 06:40:37;;;;;;;7.60;4.55;;;;;;;;;;5355813;26;20409;-78
2024/04/18 06:43:05;;;;;;;9.35;4.95;;;;;;;;;;5381920;26;20545;-77
2024/04/18 06:45:35;;;;;;;9.02;5.03;;;;;;;;;;5375960;26;19997;-78
2024/04/18 06:48:03;;;;;;;7.40;4.47;;;;;;;;;;5331044;26;20020;-78
2024/04/18 06:50:34;;;;;;;7.43;4.45;;;;;;;;;;5330481;26;20018;-78
2024/04/18 06:53:03;;;;;;;7.93;4.80;;;;;;;;;;5328112;26;20001;-77
2024/04/18 06:55:31;;;;;;;8.98;5.32;;;;;;;;;;5348145;26;20079;-78
2024/04/18 06:58:00;;;;;;;10.30;5.50;;;;;;;;;;5348338;26;20009;-77
2024/04/18 07:00:28;;;;;;;10.85;6.05;;;;;;;;;;5367406;26;20354;-77
2024/04/18 07:02:57;;;;;;;11.20;6.28;;;;;;;;;;5356889;26;20001;-77
2024/04/18 07:05:26;;;;;;;11.50;6.53;;;;;;;;;;5351617;26;20340;-77
2024/04/18 07:07:57;;;;;;;9.57;6.18;;;;;;;;;;5328728;26;20016;-77
2024/04/18 07:10:25;;;;;;;10.48;6.78;;;;;;;;;;5327971;26;20023;-78
2024/04/18 07:12:54;;;;;;;10.20;6.60;;;;;;;;;;5347911;26;20019;-76
2024/04/18 07:15:22;;;;;;;9.65;6.30;;;;;;;;;;5330662;26;20008;-78
2024/04/18 07:17:53;;;;;;;9.32;6.07;;;;;;;;;;5338677;26;20019;-76
2024/04/18 07:20:21;;;;;;;11.65;6.50;;;;;;;;;;5342202;26;20012;-77
2024/04/18 07:22:50;;;;;;;9.70;6.07;;;;;;;;;;5346358;26;20013;-77
2024/04/18 07:25:23;;;;;;;11.05;6.22;;;;;;;;;;5346454;26;20011;-77
2024/04/18 07:27:52;;;;;;;11.70;6.97;;;;;;;;;;5336239;26;20010;-81
2024/04/18 07:30:20;;;;;;;9.52;6.20;;;;;;;;;;5337129;26;20061;-79
2024/04/18 07:32:51;;;;;;;9.60;6.05;;;;;;;;;;5333777;26;20024;-82
2024/04/18 07:35:19;;;;;;;12.15;7.15;;;;;;;;;;5330205;26;20025;-79
2024/04/18 07:37:51;;;;;;;11.23;6.55;;;;;;;;;;5325742;26;20037;-78
2024/04/18 07:40:23;;;;;;;11.60;7.22;;;;;;;;;;5341763;26;20019;-77
2024/04/18 07:42:51;;;;;;;11.15;6.75;;;;;;;;;;5321096;26;20005;-77
2024/04/18 07:45:17;;;;;;;13.23;7.65;;;;;;;;;;5338816;26;20001;-78
2024/04/18 07:47:47;;;;;;;12.43;7.45;;;;;;;;;;5339645;26;20363;-77
2024/04/18 07:50:15;;;;;;;13.77;7.70;;;;;;;;;;5345926;26;20015;-80
2024/04/18 07:52:44;;;;;;;11.20;7.20;;;;;;;;;;5339997;26;20403;-79
2024/04/18 07:55:10;;;;;;;11.82;7.22;;;;;;;;;;5346054;26;20075;-78
2024/04/18 07:57:41;;;;;;;12.52;6.95;;;;;;;;;;5347301;26;20013;-78
2024/04/18 08:00:10;;;;;;;12.95;7.47;;;;;;;;;;5351247;26;19997;-77
2024/04/18 08:02:39;;;;;;;10.88;6.95;;;;;;;;;;5346175;26;20096;-78
2024/04/18 08:05:07;;;;;;;12.75;7.47;;;;;;;;;;5337038;26;20012;-78
2024/04/18 08:07:36;;;;;;;11.98;7.38;;;;;;;;;;5341787;26;19998;-78
2024/04/18 08:10:05;;;;;;;12.88;7.50;;;;;;;;;;5333973;26;20002;-78
2024/04/18 08:12:31;;;;;;;12.10;7.45;;;;;;;;;;5332597;26;20001;-77
2024/04/18 08:15:03;;;;;;;11.80;6.95;;;;;;;;;;5350542;26;20000;-77
2024/04/18 08:17:31;;;;;;;11.10;7.30;;;;;;;;;;5356106;26;20455;-78
2024/04/18 08:19:59;;;;;;;11.43;7.30;;;;;;;;;;5326902;26;20002;-79
2024/04/18 08:22:28;;;;;;;11.48;7.30;;;;;;;;;;5343526;26;20069;-78
2024/04/18 08:24:56;;;;;;;11.27;7.47;;;;;;;;;;5337380;26;20001;-78
2024/04/18 08:27:25;;;;;;;10.13;6.97;;;;;;;;;;5346806;26;20011;-78
2024/04/18 08:29:53;;;;;;;9.63;6.55;;;;;;;;;;5347805;26;19997;-79
2024/04/18 08:32:24;;;;;;;9.80;6.45;;;;;;;;;;5344470;26;19997;-78
2024/04/18 08:34:53;;;;;;;9.05;5.65;;;;;;;;;;5346071;26;19997;-78
2024/04/18 08:37:22;;;;;;;11.70;6.38;;;;;;;;;;5335575;26;20015;-78
2024/04/18 08:39:50;;;;;;;11.60;6.45;;;;;;;;;;5345050;26;20020;-78
2024/04/18 08:42:25;;;;;;;10.68;7.07;;;;;;;;;;5334717;26;20081;-77
2024/04/18 08:44:55;;;;;;;11.73;6.32;;;;;;;;;;5318615;26;20005;-76
2024/04/18 08:47:30;;;;;;;12.02;7.15;;;;;;;;;;5332655;26;20087;-77
2024/04/18 08:49:59;;;;;;;12.68;7.53;;;;;;;;;;5332792;26;19997;-78
2024/04/18 08:52:29;;;;;;;12.27;7.20;;;;;;;;;;5330551;26;20353;-79
2024/04/18 08:54:58;;;;;;;;;;;;;;;;;;5335776;26;20408;-77
2024/04/18 08:57:29;;;;;;;13.07;6.97;;;;;;;;;;5329816;26;19930;-78
2024/04/18 09:00:01;;;;;;;11.48;7.10;;;;;;;;;;5344568;26;20005;-78
2024/04/18 09:02:33;;;;;;;11.15;6.53;;;;;;;;;;5353367;26;20005;-78
2024/04/18 09:05:01;;;;;;;9.93;5.45;;;;;;;;;;5349174;26;20011;-77
2024/04/18 09:07:30;;;;;;;10.52;6.13;;;;;;;;;;5341596;26;20671;-78
2024/04/18 09:10:06;;;;;;;9.15;5.50;;;;;;;;;;5340750;26;20005;-77
2024/04/18 09:12:34;;;;;;;9.05;5.68;;;;;;;;;;5338693;26;20012;-76
2024/04/18 09:15:03;;;;;;;8.50;5.38;;;;;;;;;;5341406;26;20001;-77
2024/04/18 09:17:34;;;;;;;9.80;5.90;;;;;;;;;;5340197;26;20001;-78
2024/04/18 09:20:03;;;;;;;8.75;5.60;;;;;;;;;;5340567;26;20005;-78
2024/04/18 09:22:32;;;;;;;8.73;5.70;;;;;;;;;;5364034;26;20001;-78
2024/04/18 09:25:00;;;;;;;9.18;5.75;;;;;;;;;;5335629;26;20001;-78
2024/04/18 09:27:29;;;;;;;10.63;5.75;;;;;;;;;;5350060;26;20000;-78
2024/04/18 09:29:57;;;;;;;8.90;5.53;;;;;;;;;;5338948;26;20012;-79
2024/04/18 09:32:26;;;;;;;8.73;5.32;;;;;;;;;;5325170;26;20005;-77
2024/04/18 09:34:59;;;;;;;9.15;5.40;;;;;;;;;;5338000;26;20005;-77
2024/04/18 09:37:30;;;;;;;8.82;5.20;;;;;;;;;;5355877;26;20012;-78
2024/04/18 09:39:59;;;;;;;;;;;;;;;;;;5346382;26;20020;-83
2024/04/18 09:42:41;;;;;;;8.55;4.90;;;;;;;;;;5322009;26;19938;-83
2024/04/18 09:45:14;;;;;;;7.05;4.32;;;;;;;;;;5320197;26;20021;-83
2024/04/18 09:47:44;;;;;;;7.15;4.07;;;;;;;;;;5337073;26;20009;-80
2024/04/18 09:50:16;;;;;;;7.97;5.03;;;;;;;;;;5332114;26;20017;-82
2024/04/18 09:52:47;;;;;;;7.43;4.45;;;;;;;;;;5339862;26;20051;-79
2024/04/18 09:55:16;;;;;;;;;;;;;;;;;;5335828;26;20079;-78
2024/04/18 09:57:46;;;;;;;8.05;4.80;;;;;;;;;;5341259;26;19926;-80
2024/04/18 10:00:16;;;;;;;7.63;4.30;;;;;;;;;;5341856;26;20017;-80
2024/04/18 10:02:47;;;;;;;6.20;4.35;;;;;;;;;;5333846;26;20008;-81
2024/04/18 10:05:18;;;;;;;6.93;4.65;;;;;;;;;;5331688;26;20041;-84
2024/04/18 10:07:48;;;;;;;8.05;5.05;;;;;;;;;;5332781;26;20377;-81
2024/04/18 10:10:18;;;;;;;9.33;4.83;;;;;;;;;;5331921;26;20012;-80
2024/04/18 10:12:47;;;;;;;8.88;5.07;;;;;;;;;;5331145;26;20227;-78
2024/04/18 10:15:20;;;;;;;11.93;4.63;;;;;;;;;;5328127;26;20005;-82
2024/04/18 10:17:48;;;;;;;7.82;5.28;;;;;;;;;;5337827;26;20016;-80
2024/04/18 10:20:20;;;;;;;9.05;5.50;;;;;;;;;;5367087;26;20016;-83
2024/04/18 10:22:58;;;;;;;7.70;4.55;;;;;;;;;;5343252;26;20015;-84
2024/04/18 10:25:27;;;;;;;6.65;4.50;;;;;;;;;;5356957;26;20006;-80
2024/04/18 10:27:56;;;;;;;7.78;4.90;;;;;;;;;;5365885;26;20101;-82
2024/04/18 10:30:25;;;;;;;7.05;4.63;;;;;;;;;;5351673;26;20015;-83
2024/04/18 10:32:55;;;;;;;7.72;4.45;;;;;;;;;;5328937;26;20016;-83
2024/04/18 10:35:27;;;;;;;8.25;5.05;;;;;;;;;;5331900;26;20002;-88
2024/04/18 10:37:57;;;;;;;7.05;4.55;;;;;;;;;;5324277;26;20017;-86
2024/04/18 10:40:26;;;;;;;8.93;5.15;;;;;;;;;;5323550;26;20013;-79
2024/04/18 10:43:11;;;;;;;8.60;5.22;;;;;;;;;;5327089;26;20346;-82
2024/04/18 10:45:40;;;;;;;9.00;5.30;;;;;;;;;;5354346;26;20016;-79
2024/04/18 10:48:09;;;;;;;7.47;4.45;;;;;;;;;;5363367;26;20001;-82
2024/04/18 10:50:41;;;;;;;7.72;4.60;;;;;;;;;;5369031;26;20009;-82
2024/04/18 10:53:10;;;;;;;9.48;5.40;;;;;;;;;;5364294;26;20033;-84
2024/04/18 10:55:38;;;;;;;7.38;4.97;;;;;;;;;;5344063;26;20112;-79
2024/04/18 10:58:07;;;;;;;8.35;4.85;;;;;;;;;;5352283;26;20000;-77
2024/04/18 11:00:36;;;;;;;7.53;4.43;;;;;;;;;;5351717;26;20005;-77
2024/04/18 11:03:04;;;;;;;6.85;4.13;;;;;;;;;;5345291;26;20023;-77
2024/04/18 11:05:33;;;;;;;6.65;4.15;;;;;;;;;;5353818;26;19997;-78
2024/04/18 11:08:04;;;;;;;6.43;4.07;;;;;;;;;;5346715;26;19997;-77
2024/04/18 11:10:34;;;;;;;8.73;4.25;;;;;;;;;;5347061;26;20001;-77
2024/04/18 11:13:03;;;;;;;6.03;3.70;;;;;;;;;;5346024;26;20124;-78
2024/04/18 11:15:32;;;;;;;7.38;3.88;;;;;;;;;;5360264;26;20291;-76
2024/04/18 11:18:04;;;;;;;5.63;3.90;;;;;;;;;;5346894;26;20023;-76
2024/04/18 11:20:33;;;;;;;6.05;3.80;;;;;;;;;;5333188;26;20005;-76
2024/04/18 11:23:05;;;;;;;6.32;3.83;;;;;;;;;;5323996;26;20427;-77
2024/04/18 11:25:34;;;;;;;6.57;4.22;;;;;;;;;;5331113;26;20016;-77
2024/04/18 11:28:07;;;;;;;7.55;5.10;;;;;;;;;;5330800;26;20121;-79
2024/04/18 11:30:35;;;;;;;7.53;5.10;;;;;;;;;;5329591;26;20013;-81
2024/04/18 11:33:04;;;;;;;8.32;5.15;;;;;;;;;;5336448;26;20544;-77
2024/04/18 11:35:32;;;;;;;7.18;5.38;;;;;;;;;;5338928;26;20102;-79
2024/04/18 11:38:06;;;;;;;7.05;4.57;;;;;;;;;;5330717;26;20466;-80
2024/04/18 11:40:34;;;;;;;6.50;4.00;;;;;;;;;;5340718;26;20009;-82
2024/04/18 11:43:03;;;;;;;6.25;3.67;;;;;;;;;;5337316;26;20012;-81
2024/04/18 11:45:32;;;;;;;6.53;3.78;;;;;;;;;;5336118;26;20028;-80
2024/04/18 11:48:01;;;;;;;6.60;3.97;;;;;;;;;;5341917;26;20330;-83
2024/04/18 11:50:30;;;;;;;5.97;3.92;;;;;;;;;;5350041;26;20487;-81
2024/04/18 11:52:59;;;;;;;5.85;3.80;;;;;;;;;;5345974;26;20000;-80
2024/04/18 11:55:27;;;;;;;5.70;3.67;;;;;;;;;;5358281;26;20009;-83
2024/04/18 11:57:56;;;;;;;8.27;3.70;;;;;;;;;;5346286;26;20016;-80
2024/04/18 12:00:25;;;;;;;6.65;4.30;;;;;;;;;;5335651;26;20016;-80
2024/04/18 12:02:53;;;;;;;5.78;3.70;;;;;;;;;;5350386;26;19997;-80
2024/04/18 12:05:21;;;;;;;5.88;3.38;;;;;;;;;;5353531;26;20024;-80
2024/04/18 12:07:50;;;;;;;5.65;3.33;;;;;;;;;;5354129;26;20472;-80
2024/04/18 12:10:19;;;;;;;6.20;3.35;;;;;;;;;;5341419;26;20006;-80
2024/04/18 12:12:50;;;;;;;5.22;3.35;;;;;;;;;;5339050;26;20001;-80
2024/04/18 12:15:19;;;;;;;5.28;3.53;;;;;;;;;;5349825;26;20012;-81
2024/04/18 12:17:47;;;;;;;4.50;2.58;;;;;;;;;;5351250;26;20000;-80
2024/04/18 12:20:16;;;;;;;4.50;2.90;;;;;;;;;;5349167;26;20019;-81
2024/04/18 12:22:45;;;;;;;4.70;2.38;;;;;;;;;;5338170;26;20016;-81
2024/04/18 12:25:11;;;;;;;3.88;1.98;;;;;;;;;;5344656;26;20001;-81
2024/04/18 12:27:39;;;;;;;5.13;3.33;;;;;;;;;;5348861;26;20079;-80
2024/04/18 12:30:11;;;;;;;6.43;3.33;;;;;;;;;;5349397;26;19997;-81
2024/04/18 12:32:40;;;;;;;5.03;2.83;;;;;;;;;;5338818;26;19996;-81
2024/04/18 12:35:10;;;;;;;4.47;2.30;;;;;;;;;;5348882;26;20076;-80
2024/04/18 12:37:38;;;;;;;3.75;2.03;;;;;;;;;;5325678;26;20387;-80
2024/04/18 12:40:08;;;;;;;4.90;2.75;;;;;;;;;;5338600;26;20019;-80
2024/04/18 12:42:36;;;;;;;5.90;3.10;;;;;;;;;;5343505;26;20015;-80
2024/04/18 12:45:05;;;;;;;4.57;3.03;;;;;;;;;;5353355;26;19997;-81
2024/04/18 12:47:34;;;;;;;4.35;2.63;;;;;;;;;;5348837;26;19997;-82
2024/04/18 12:50:04;;;;;;;4.60;2.20;;;;;;;;;;5342400;26;20371;-80
2024/04/18 12:52:32;;;;;;;3.20;1.98;;;;;;;;;;5341794;26;20016;-81
2024/04/18 12:55:01;;;;;;;2.88;1.60;;;;;;;;;;5355363;26;20347;-79
2024/04/18 12:57:29;;;;;;;3.08;1.42;;;;;;;;;;5343018;26;20020;-80
2024/04/18 12:59:58;;;;;;;3.38;1.80;;;;;;;;;;5344142;26;20006;-78
2024/04/18 13:02:23;;;;;;;3.25;1.83;;;;;;;;;;5347533;26;20005;-79
2024/04/18 13:04:54;;;;;;;3.88;2.13;;;;;;;;;;5340827;26;20395;-80
2024/04/18 13:07:24;;;;;;;2.85;1.80;;;;;;;;;;5337723;26;20037;-81
2024/04/18 13:09:52;;;;;;;3.50;1.90;;;;;;;;;;5345026;26;20023;-80
2024/04/18 13:12:20;;;;;;;3.78;1.92;;;;;;;;;;5343379;26;20005;-81
2024/04/18 13:14:49;;;;;;;3.28;1.95;;;;;;;;;;5342714;26;20070;-81
2024/04/18 13:17:18;;;;;;;3.92;2.10;;;;;;;;;;5348934;26;20025;-80
2024/04/18 13:19:47;;;;;;;4.07;2.05;;;;;;;;;;5349658;26;20001;-80
2024/04/18 13:22:15;;;;;;;3.10;1.77;;;;;;;;;;5346962;26;20019;-82
2024/04/18 13:24:44;;;;;;;4.15;1.98;;;;;;;;;;5335860;26;20078;-80
2024/04/18 13:27:13;;;;;;;3.53;1.80;;;;;;;;;;5334285;26;20015;-78
2024/04/18 13:29:41;;;;;;;4.40;2.05;;;;;;;;;;5333977;26;20005;-83
2024/04/18 13:32:10;;;;;;;4.78;2.40;;;;;;;;;;5328636;26;20006;-81
2024/04/18 13:34:38;;;;;;;5.00;3.10;;;;;;;;;;5340743;26;20005;-80
2024/04/18 13:37:07;;;;;;;5.00;2.90;;;;;;;;;;5333838;26;20011;-78
2024/04/18 13:39:43;;;;;;;4.85;2.92;;;;;;;;;;5349293;26;20001;-80
2024/04/18 13:42:11;;;;;;;5.38;3.30;;;;;;;;;;5339006;26;20006;-80
2024/04/18 13:44:40;;;;;;;4.65;3.08;;;;;;;;;;5336703;26;20002;-81
2024/04/18 13:47:08;;;;;;;5.57;3.50;;;;;;;;;;5334515;26;20005;-80
2024/04/18 13:49:35;;;;;;;6.57;3.78;;;;;;;;;;5344460;26;20521;-80
2024/04/18 13:52:03;;;;;;;6.45;3.60;;;;;;;;;;5353404;26;20001;-81
2024/04/18 13:54:32;;;;;;;6.68;3.67;;;;;;;;;;5347467;26;20016;-80
2024/04/18 13:57:03;;;;;;;6.10;3.78;;;;;;;;;;5341575;26;20194;-81
2024/04/18 13:59:32;;;;;;;6.00;3.45;;;;;;;;;;5338444;26;20013;-82
2024/04/18 14:02:02;;;;;;;6.30;3.78;;;;;;;;;;5352099;26;20011;-82
2024/04/18 14:04:31;;;;;;;6.80;4.03;;;;;;;;;;5363327;26;20020;-82
2024/04/18 14:06:59;;;;;;;6.30;3.88;;;;;;;;;;5346470;26;20009;-81
2024/04/18 14:09:36;;;;;;;5.88;3.85;;;;;;;;;;5350921;26;20005;-79
2024/04/18 14:12:08;;;;;;;6.57;3.80;;;;;;;;;;5351088;26;20459;-80
2024/04/18 14:14:37;;;;;;;6.40;3.90;;;;;;;;;;5338784;26;20460;-81
2024/04/18 14:19:50;;;;;;;7.70;3.72;;;;;;;;;;5342957;26;20016;-81
2024/04/18 14:22:18;;;;;;;6.60;4.30;;;;;;;;;;5324457;26;20020;-80
2024/04/18 14:24:47;;;;;;;7.05;4.38;;;;;;;;;;5335230;26;20013;-83
2024/04/18 14:27:18;;;;;;;6.70;3.72;;;;;;;;;;5348389;26;20044;-81
2024/04/18 14:29:46;;;;;;;5.90;3.95;;;;;;;;;;5332156;26;20652;-79
2024/04/18 14:32:15;;;;;;;5.90;3.85;;;;;;;;;;5350787;26;20001;-81
2024/04/18 14:34:43;;;;;;;3.47;2.03;;;;;;;;;;5349969;26;19997;-81
2024/04/18 14:37:12;;;;;;;3.85;1.70;;;;;;;;;;5344442;26;20005;-80
2024/04/18 14:39:42;;;;;;;3.05;1.65;;;;;;;;;;5342899;26;20086;-79
2024/04/18 14:42:10;;;;;;;2.40;1.50;;;;;;;;;;5341040;26;20468;-80
2024/04/18 14:44:41;;;;;;;3.15;1.33;;;;;;;;;;5348770;26;19997;-81
2024/04/18 14:47:07;;;;;;;3.05;1.60;;;;;;;;;;5345897;26;20052;-80
2024/04/18 14:49:38;;;;;;;3.30;1.73;;;;;;;;;;5337191;26;20004;-79
2024/04/18 14:52:07;;;;;;;4.45;2.28;;;;;;;;;;5347005;26;20534;-80
2024/04/18 14:54:35;;;;;;;3.60;1.85;;;;;;;;;;5349596;26;20004;-82